createdAt,value
2023-01-27T00:01:23.680Z,2.41
2023-01-27T00:03:51.268Z,2.39
2023-01-27T00:06:18.245Z,2.27
2023-01-27T00:08:45.254Z,2.35
2023-01-27T00:11:30.727Z,2.29
2023-01-27T00:13:57.726Z,2.48
2023-01-27T00:16:24.785Z,2.80
2023-01-27T00:18:51.779Z,2.81
2023-01-27T00:21:37.704Z,2.41
2023-01-27T00:24:23.521Z,2.29
2023-01-27T00:26:50.565Z,2.38
2023-01-27T00:29:17.556Z,2.33
2023-01-27T00:32:03.395Z,2.31
2023-01-27T00:34:30.391Z,2.31
2023-01-27T00:36:57.469Z,2.33
2023-01-27T00:39:24.435Z,2.22
2023-01-27T00:41:51.548Z,2.34
2023-01-27T00:44:18.599Z,2.29
2023-01-27T00:46:45.576Z,2.35
2023-01-27T00:49:13.515Z,2.32
2023-01-27T00:51:40.756Z,2.42
2023-01-27T00:54:08.007Z,2.35
2023-01-27T00:56:36.017Z,2.35
2023-01-27T00:59:03.776Z,2.34
2023-01-27T01:01:31.098Z,2.23
2023-01-27T01:04:01.277Z,2.30
2023-01-27T01:06:28.482Z,2.40
2023-01-27T01:08:57.934Z,2.30
2023-01-27T01:11:25.121Z,2.31
2023-01-27T01:13:54.826Z,2.36
2023-01-27T01:16:24.987Z,2.25
2023-01-27T01:18:52.071Z,2.53
2023-01-27T01:21:19.060Z,2.62
2023-01-27T01:23:46.817Z,2.57
2023-01-27T01:26:16.724Z,2.40
2023-01-27T01:28:45.976Z,2.35
2023-01-27T01:31:17.478Z,2.52
2023-01-27T01:33:44.784Z,2.72
2023-01-27T01:36:21.766Z,2.49
2023-01-27T01:38:49.207Z,2.34
2023-01-27T01:41:20.620Z,2.35
2023-01-27T01:43:49.452Z,2.33
2023-01-27T01:46:16.908Z,2.48
2023-01-27T01:48:54.828Z,2.38
2023-01-27T01:51:52.344Z,2.33
2023-01-27T01:54:38.870Z,2.39
2023-01-27T01:57:12.615Z,2.36
2023-01-27T01:59:48.843Z,2.30
2023-01-27T02:02:22.247Z,2.27
2023-01-27T02:05:00.651Z,2.28
2023-01-27T02:07:47.806Z,2.37
2023-01-27T02:10:15.423Z,2.30
2023-01-27T02:12:42.510Z,2.61
2023-01-27T02:15:11.813Z,2.45
2023-01-27T02:17:39.158Z,2.31
2023-01-27T02:20:36.477Z,2.23
2023-01-27T02:23:18.200Z,2.25
2023-01-27T02:26:35.959Z,2.29
2023-01-27T02:29:13.522Z,2.45
2023-01-27T02:31:41.266Z,2.50
2023-01-27T02:34:18.093Z,2.44
2023-01-27T02:36:55.234Z,2.42
2023-01-27T02:39:29.735Z,2.55
2023-01-27T02:41:58.690Z,2.57
2023-01-27T02:44:25.764Z,2.51
2023-01-27T02:46:52.830Z,2.38
2023-01-27T02:49:19.837Z,2.44
2023-01-27T02:51:46.835Z,2.39
2023-01-27T02:54:13.937Z,2.44
2023-01-27T02:56:40.937Z,2.39
2023-01-27T02:59:07.971Z,2.37
2023-01-27T03:01:35.002Z,2.32
2023-01-27T03:04:02.441Z,2.40
2023-01-27T03:06:29.446Z,2.44
2023-01-27T03:08:56.518Z,2.61
2023-01-27T03:11:42.256Z,2.41
2023-01-27T03:14:09.956Z,2.29
2023-01-27T03:16:55.410Z,2.44
2023-01-27T03:19:22.394Z,2.46
2023-01-27T03:21:52.816Z,2.30
2023-01-27T03:24:20.723Z,2.29
2023-01-27T03:26:48.043Z,2.33
2023-01-27T03:29:34.135Z,2.42
2023-01-27T03:32:01.135Z,2.39
2023-01-27T03:34:28.116Z,2.34
2023-01-27T03:37:13.696Z,2.27
2023-01-27T03:39:59.428Z,2.32
2023-01-27T03:42:45.190Z,2.30
2023-01-27T03:45:30.841Z,2.34
2023-01-27T03:47:57.820Z,2.47
2023-01-27T03:50:37.775Z,2.43
2023-01-27T03:53:05.886Z,2.56
2023-01-27T03:55:35.605Z,2.48
2023-01-27T03:58:18.361Z,2.29
2023-01-27T04:00:51.616Z,2.62
2023-01-27T04:03:38.502Z,2.68
2023-01-27T04:06:31.384Z,2.64
2023-01-27T04:08:59.296Z,2.61
2023-01-27T04:11:45.331Z,2.49
2023-01-27T04:14:13.797Z,2.49
2023-01-27T04:16:40.792Z,2.50
2023-01-27T04:19:10.558Z,2.61
2023-01-27T04:21:37.969Z,2.51
2023-01-27T04:24:08.815Z,2.35
2023-01-27T04:26:36.052Z,2.29
2023-01-27T04:29:04.231Z,2.20
2023-01-27T04:31:32.736Z,2.41
2023-01-27T04:33:59.974Z,2.35
2023-01-27T04:36:27.003Z,2.25
2023-01-27T04:38:54.001Z,2.26
2023-01-27T04:41:20.967Z,2.39
2023-01-27T04:43:48.218Z,2.45
2023-01-27T04:46:15.256Z,2.44
2023-01-27T04:48:42.290Z,2.68
2023-01-27T04:51:09.338Z,2.72
2023-01-27T04:53:36.436Z,2.46
2023-01-27T04:56:22.639Z,2.51
2023-01-27T04:58:49.943Z,2.59
2023-01-27T05:01:17.039Z,2.50
2023-01-27T05:03:44.310Z,2.31
2023-01-27T05:06:12.156Z,2.40
2023-01-27T05:08:39.491Z,2.30
2023-01-27T05:11:07.148Z,2.31
2023-01-27T05:13:34.405Z,2.26
2023-01-27T05:16:17.613Z,2.23
2023-01-27T05:18:48.643Z,2.23
2023-01-27T05:21:19.799Z,2.30
2023-01-27T05:23:47.679Z,2.46
2023-01-27T05:26:18.606Z,2.41
2023-01-27T05:28:47.597Z,2.68
2023-01-27T05:31:22.233Z,2.55
2023-01-27T05:33:54.954Z,2.43
2023-01-27T05:36:24.831Z,2.26
2023-01-27T05:38:53.191Z,2.27
2023-01-27T05:41:20.997Z,2.32
2023-01-27T05:43:53.865Z,2.40
2023-01-27T05:46:27.831Z,2.29
2023-01-27T05:48:58.933Z,2.20
2023-01-27T05:51:30.207Z,2.18
2023-01-27T05:53:57.531Z,2.31
2023-01-27T05:56:26.530Z,2.30
2023-01-27T05:58:58.354Z,2.32
2023-01-27T06:01:34.555Z,2.21
2023-01-27T06:04:02.015Z,2.23
2023-01-27T06:06:31.641Z,2.34
2023-01-27T06:09:00.172Z,2.31
2023-01-27T06:11:27.714Z,2.26
2023-01-27T06:13:54.965Z,2.19
2023-01-27T06:16:23.159Z,2.15
2023-01-27T06:18:50.295Z,2.18
2023-01-27T06:21:18.333Z,2.17
2023-01-27T06:23:45.305Z,2.22
2023-01-27T06:26:19.320Z,2.26
2023-01-27T06:28:47.230Z,2.35
2023-01-27T06:31:21.987Z,2.22
2023-01-27T06:33:50.814Z,2.54
2023-01-27T06:36:22.094Z,2.45
2023-01-27T06:38:50.182Z,2.43
2023-01-27T06:41:17.564Z,2.45
2023-01-27T06:43:44.629Z,2.49
2023-01-27T06:46:12.281Z,2.56
2023-01-27T06:48:39.396Z,2.57
2023-01-27T06:51:07.015Z,2.41
2023-01-27T06:53:34.926Z,2.30
2023-01-27T06:56:02.350Z,2.17
2023-01-27T06:58:29.694Z,2.19
2023-01-27T07:00:57.086Z,2.18
2023-01-27T07:03:24.635Z,1.91
2023-01-27T07:05:53.046Z,2.02
2023-01-27T07:08:20.135Z,2.10
2023-01-27T07:10:47.139Z,2.00
2023-01-27T07:13:15.358Z,2.06
2023-01-27T07:15:42.601Z,2.09
2023-01-27T07:18:14.355Z,1.97
2023-01-27T07:20:42.380Z,2.14
2023-01-27T07:23:10.147Z,1.97
2023-01-27T07:25:37.486Z,1.91
2023-01-27T07:28:05.463Z,1.97
2023-01-27T07:30:36.164Z,2.16
2023-01-27T07:33:08.806Z,2.39
2023-01-27T07:35:38.202Z,2.26
2023-01-27T07:38:06.905Z,2.22
2023-01-27T07:40:35.053Z,2.43
2023-01-27T07:43:03.526Z,2.44
2023-01-27T07:45:31.253Z,2.57
2023-01-27T07:48:03.980Z,2.63
2023-01-27T07:50:31.467Z,2.47
2023-01-27T07:53:05.695Z,2.53
2023-01-27T07:55:33.810Z,2.69
2023-01-27T07:58:01.179Z,2.83
2023-01-27T08:00:29.099Z,2.87
2023-01-27T08:02:57.665Z,3.01
2023-01-27T08:05:26.278Z,3.22
2023-01-27T08:07:57.646Z,3.16
2023-01-27T08:10:25.664Z,3.02
2023-01-27T08:12:52.813Z,2.86
2023-01-27T08:15:19.904Z,2.95
2023-01-27T08:17:58.097Z,2.91
2023-01-27T08:20:27.928Z,3.17
2023-01-27T08:22:55.292Z,2.98
2023-01-27T08:25:23.013Z,3.07
2023-01-27T08:27:52.905Z,2.96
2023-01-27T08:30:20.294Z,2.87
2023-01-27T08:32:47.936Z,2.88
2023-01-27T08:35:15.142Z,2.88
2023-01-27T08:37:42.219Z,2.91
2023-01-27T08:40:10.516Z,2.97
2023-01-27T08:42:37.742Z,3.21
2023-01-27T08:45:05.320Z,3.21
2023-01-27T08:47:32.359Z,3.43
2023-01-27T08:49:59.604Z,3.68
2023-01-27T08:52:27.724Z,3.72
2023-01-27T08:54:54.771Z,3.53
2023-01-27T08:57:21.786Z,3.64
2023-01-27T08:59:48.779Z,3.63
2023-01-27T09:02:15.772Z,3.88
2023-01-27T09:04:45.249Z,3.95
2023-01-27T09:07:12.399Z,4.19
2023-01-27T09:09:39.479Z,4.31
2023-01-27T09:12:06.675Z,4.23
2023-01-27T09:14:34.407Z,4.38
2023-01-27T09:17:01.370Z,4.60
2023-01-27T09:19:28.420Z,4.65
2023-01-27T09:21:55.470Z,4.52
2023-01-27T09:24:22.641Z,4.70
2023-01-27T09:26:49.864Z,4.87
2023-01-27T09:29:16.944Z,4.71
2023-01-27T09:31:44.041Z,4.50
2023-01-27T09:34:11.163Z,4.60
2023-01-27T09:36:45.319Z,4.48
2023-01-27T09:39:13.148Z,4.55
2023-01-27T09:42:01.541Z,4.60
2023-01-27T09:44:42.092Z,4.64
2023-01-27T09:47:41.485Z,4.56
2023-01-27T09:50:48.771Z,4.60
2023-01-27T09:53:47.450Z,4.77
2023-01-27T09:56:38.916Z,5.06
2023-01-27T09:59:35.397Z,4.81
2023-01-27T10:02:28.800Z,4.73
2023-01-27T10:05:27.249Z,4.74
2023-01-27T10:08:47.341Z,4.77
2023-01-27T10:11:42.496Z,4.66
2023-01-27T10:14:24.340Z,4.83
2023-01-27T10:17:38.572Z,4.20
2023-01-27T10:20:23.944Z,4.59
2023-01-27T10:23:35.184Z,4.55
2023-01-27T10:26:36.236Z,4.50
2023-01-27T10:29:16.567Z,4.46
2023-01-27T10:32:08.979Z,4.33
2023-01-27T10:35:11.689Z,4.29
2023-01-27T10:38:19.980Z,4.42
2023-01-27T10:41:01.815Z,4.51
2023-01-27T10:44:35.807Z,4.56
2023-01-27T10:47:03.135Z,4.77
2023-01-27T10:50:00.112Z,4.81
2023-01-27T10:53:04.190Z,4.56
2023-01-27T10:55:53.079Z,4.42
2023-01-27T10:58:55.897Z,4.62
2023-01-27T11:01:43.318Z,4.50
2023-01-27T11:04:46.865Z,4.50
2023-01-27T11:07:20.528Z,4.52
2023-01-27T11:10:02.275Z,4.46
2023-01-27T11:12:38.973Z,4.44
2023-01-27T11:15:33.765Z,4.53
2023-01-27T11:18:25.528Z,4.15
2023-01-27T11:21:09.790Z,4.22
2023-01-27T11:23:49.104Z,4.50
2023-01-27T11:26:39.553Z,4.55
2023-01-27T11:29:36.258Z,4.56
2023-01-27T11:32:21.181Z,4.69
2023-01-27T11:35:12.583Z,4.74
2023-01-27T11:37:47.538Z,4.70
2023-01-27T11:40:23.238Z,4.66
2023-01-27T11:42:51.888Z,4.98
2023-01-27T11:45:21.308Z,4.81
2023-01-27T11:47:55.618Z,4.88
2023-01-27T11:50:26.257Z,4.89
2023-01-27T11:53:32.200Z,4.80
2023-01-27T11:56:08.509Z,4.79
2023-01-27T11:59:05.484Z,4.74
2023-01-27T12:01:59.895Z,4.90
2023-01-27T12:04:39.212Z,4.92
2023-01-27T12:07:31.967Z,4.88
2023-01-27T12:09:58.958Z,4.94
2023-01-27T12:12:27.971Z,4.89
2023-01-27T12:15:00.525Z,4.79
2023-01-27T12:17:43.309Z,4.80
2023-01-27T12:20:22.257Z,4.70
2023-01-27T12:22:59.654Z,4.73
2023-01-27T12:25:31.758Z,4.72
2023-01-27T12:28:02.810Z,4.75
2023-01-27T12:30:37.267Z,4.78
2023-01-27T12:33:30.015Z,4.76
2023-01-27T12:36:03.660Z,4.79
2023-01-27T12:38:35.856Z,4.82
2023-01-27T12:41:08.400Z,4.85
2023-01-27T12:43:54.796Z,4.88
2023-01-27T12:46:24.864Z,4.98
2023-01-27T12:49:00.118Z,5.06
2023-01-27T12:51:48.380Z,5.13
2023-01-27T12:54:34.842Z,5.00
2023-01-27T12:57:14.303Z,4.97
2023-01-27T12:59:54.928Z,4.86
2023-01-27T13:02:31.107Z,4.88
2023-01-27T13:05:05.870Z,4.85
2023-01-27T13:07:46.971Z,4.89
2023-01-27T13:10:23.792Z,4.80
2023-01-27T13:12:57.531Z,4.73
2023-01-27T13:15:28.990Z,4.76
2023-01-27T13:17:58.995Z,4.77
2023-01-27T13:20:32.183Z,4.65
2023-01-27T13:23:19.567Z,4.62
2023-01-27T13:26:04.584Z,4.56
2023-01-27T13:28:52.120Z,4.66
2023-01-27T13:31:56.907Z,4.58
2023-01-27T13:34:53.477Z,4.51
2023-01-27T13:37:42.099Z,4.58
2023-01-27T13:40:27.754Z,4.53
2023-01-27T13:43:23.557Z,4.47
2023-01-27T13:46:22.020Z,4.45
2023-01-27T13:48:59.755Z,4.39
2023-01-27T13:51:31.162Z,4.38
2023-01-27T13:54:02.596Z,4.39
2023-01-27T13:56:57.446Z,4.39
2023-01-27T13:59:49.492Z,4.42
2023-01-27T14:03:04.114Z,4.38
2023-01-27T14:05:56.830Z,4.23
2023-01-27T14:09:03.259Z,4.27
2023-01-27T14:11:44.584Z,4.35
2023-01-27T14:14:37.264Z,4.23
2023-01-27T14:17:26.665Z,4.30
2023-01-27T14:20:05.266Z,4.21
2023-01-27T14:22:47.010Z,4.23
2023-01-27T14:25:39.125Z,4.07
2023-01-27T14:28:22.290Z,3.87
2023-01-27T14:31:11.389Z,4.08
2023-01-27T14:34:01.716Z,4.10
2023-01-27T14:36:53.814Z,3.38
2023-01-27T14:39:37.312Z,3.26
2023-01-27T14:42:14.267Z,3.50
2023-01-27T14:45:30.500Z,3.48
2023-01-27T14:48:27.915Z,3.75
2023-01-27T14:51:37.743Z,3.34
2023-01-27T14:54:44.948Z,2.93
2023-01-27T14:57:55.824Z,2.97
2023-01-27T15:01:10.393Z,2.79
2023-01-27T15:04:00.797Z,2.68
2023-01-27T15:06:45.276Z,2.60
2023-01-27T15:09:34.598Z,2.71
2023-01-27T15:12:26.505Z,2.87
2023-01-27T15:15:32.283Z,2.86
2023-01-27T15:18:26.348Z,2.85
2023-01-27T15:21:33.715Z,2.95
2023-01-27T15:24:38.629Z,3.02
2023-01-27T15:27:08.056Z,3.11
2023-01-27T15:29:35.262Z,3.05
2023-01-27T15:32:14.085Z,3.22
2023-01-27T15:34:44.397Z,3.26
2023-01-27T15:37:20.242Z,3.27
2023-01-27T15:40:17.013Z,3.26
2023-01-27T15:43:05.154Z,3.15
2023-01-27T15:45:43.704Z,3.16
2023-01-27T15:48:12.869Z,3.19
2023-01-27T15:50:53.940Z,3.18
2023-01-27T15:53:32.338Z,3.11
2023-01-27T15:56:01.901Z,3.15
2023-01-27T15:59:03.507Z,3.28
2023-01-27T16:01:34.593Z,3.22
2023-01-27T16:04:21.799Z,3.29
2023-01-27T16:06:51.749Z,3.14
2023-01-27T16:09:45.585Z,2.79
2023-01-27T16:12:27.426Z,2.88
2023-01-27T16:15:19.206Z,2.95
2023-01-27T16:18:07.374Z,2.65
2023-01-27T16:21:06.853Z,2.54
2023-01-27T16:23:48.875Z,2.45
2023-01-27T16:26:59.823Z,2.39
2023-01-27T16:29:48.820Z,2.49
2023-01-27T16:32:22.438Z,2.46
2023-01-27T16:34:58.170Z,2.70
2023-01-27T16:37:36.739Z,2.54
2023-01-27T16:40:22.985Z,2.61
2023-01-27T16:42:52.993Z,2.72
2023-01-27T16:45:29.119Z,2.46
2023-01-27T16:48:06.733Z,2.13
2023-01-27T16:50:36.409Z,2.31
2023-01-27T16:53:08.302Z,2.34
2023-01-27T16:55:35.465Z,2.08
2023-01-27T16:58:03.199Z,2.20
2023-01-27T17:00:36.420Z,2.25
2023-01-27T17:03:15.249Z,2.42
2023-01-27T17:05:43.857Z,2.55
2023-01-27T17:08:27.934Z,2.65
2023-01-27T17:11:04.845Z,2.79
2023-01-27T17:13:46.419Z,2.74
2023-01-27T17:16:29.836Z,2.65
2023-01-27T17:19:07.912Z,2.70
2023-01-27T17:21:41.520Z,2.51
2023-01-27T17:24:32.914Z,2.37
2023-01-27T17:27:21.508Z,2.24
2023-01-27T17:29:51.845Z,2.34
2023-01-27T17:32:41.997Z,2.37
2023-01-27T17:35:25.560Z,2.44
2023-01-27T17:37:53.177Z,2.44
2023-01-27T17:40:23.052Z,2.46
2023-01-27T17:42:50.526Z,2.44
2023-01-27T17:45:32.177Z,2.53
2023-01-27T17:48:01.085Z,2.57
2023-01-27T17:50:37.364Z,2.62
2023-01-27T17:53:12.357Z,2.76
2023-01-27T17:55:40.235Z,2.82
2023-01-27T17:58:17.061Z,2.78
2023-01-27T18:00:46.205Z,2.86
2023-01-27T18:03:36.051Z,2.89
2023-01-27T18:06:06.514Z,2.98
2023-01-27T18:08:35.457Z,2.90
2023-01-27T18:11:31.383Z,3.01
2023-01-27T18:14:14.212Z,2.89
2023-01-27T18:16:41.293Z,2.80
2023-01-27T18:19:23.708Z,2.88
2023-01-27T18:22:11.159Z,2.82
2023-01-27T18:24:40.396Z,2.90
2023-01-27T18:27:22.953Z,2.78
2023-01-27T18:29:56.117Z,2.82
2023-01-27T18:32:24.769Z,2.77
2023-01-27T18:34:56.389Z,2.78
2023-01-27T18:37:34.385Z,2.80
2023-01-27T18:40:21.489Z,2.86
2023-01-27T18:42:53.992Z,2.91
2023-01-27T18:45:21.310Z,2.94
2023-01-27T18:47:48.384Z,2.82
2023-01-27T18:50:18.215Z,2.95
2023-01-27T18:52:46.294Z,2.77
2023-01-27T18:55:29.523Z,2.76
2023-01-27T18:58:00.063Z,2.76
2023-01-27T19:00:42.319Z,2.75
2023-01-27T19:03:19.619Z,2.88
2023-01-27T19:05:48.668Z,2.91
2023-01-27T19:08:22.170Z,2.90
2023-01-27T19:10:50.345Z,2.75
2023-01-27T19:13:18.092Z,2.70
2023-01-27T19:15:53.610Z,2.82
2023-01-27T19:18:38.291Z,2.90
2023-01-27T19:21:05.908Z,2.87
2023-01-27T19:23:33.024Z,2.65
2023-01-27T19:26:03.408Z,2.72
2023-01-27T19:28:38.663Z,2.72
2023-01-27T19:31:07.509Z,2.64
2023-01-27T19:33:37.266Z,2.80
2023-01-27T19:36:24.162Z,2.77
2023-01-27T19:39:22.418Z,2.73
2023-01-27T19:41:49.459Z,2.78
2023-01-27T19:44:16.881Z,2.75
2023-01-27T19:46:44.159Z,2.74
2023-01-27T19:49:19.418Z,2.80
2023-01-27T19:51:46.787Z,2.73
2023-01-27T19:54:13.905Z,2.59
2023-01-27T19:56:40.941Z,2.48
2023-01-27T19:59:09.500Z,2.44
2023-01-27T20:01:36.653Z,2.31
2023-01-27T20:04:03.747Z,2.37
2023-01-27T20:06:31.922Z,2.06
2023-01-27T20:09:03.297Z,2.19
2023-01-27T20:11:38.053Z,2.23
2023-01-27T20:14:13.720Z,2.22
2023-01-27T20:16:42.002Z,2.34
2023-01-27T20:19:09.218Z,2.41
2023-01-27T20:21:36.261Z,2.53
2023-01-27T20:24:03.648Z,2.55
2023-01-27T20:26:31.340Z,2.48
2023-01-27T20:28:59.197Z,2.58
2023-01-27T20:31:26.899Z,2.59
2023-01-27T20:33:53.965Z,2.35
2023-01-27T20:36:23.705Z,2.44
2023-01-27T20:38:51.802Z,2.46
2023-01-27T20:41:22.329Z,2.47
2023-01-27T20:43:54.108Z,2.42
2023-01-27T20:46:21.123Z,2.23
2023-01-27T20:48:48.236Z,2.18
2023-01-27T20:51:16.478Z,2.21
2023-01-27T20:53:47.876Z,1.94
2023-01-27T20:56:21.396Z,1.88
2023-01-27T20:58:49.178Z,1.90
2023-01-27T21:01:23.416Z,1.75
2023-01-27T21:03:50.899Z,1.69
2023-01-27T21:06:21.581Z,1.87
2023-01-27T21:08:49.585Z,1.89
2023-01-27T21:11:20.089Z,2.06
2023-01-27T21:13:48.716Z,2.16
2023-01-27T21:16:16.057Z,2.06
2023-01-27T21:18:44.255Z,2.06
2023-01-27T21:21:28.027Z,1.82
2023-01-27T21:23:56.142Z,1.92
2023-01-27T21:26:23.776Z,2.05
2023-01-27T21:28:50.937Z,2.06
2023-01-27T21:31:21.783Z,2.03
2023-01-27T21:33:50.198Z,2.15
2023-01-27T21:36:19.333Z,2.24
2023-01-27T21:38:47.247Z,2.09
2023-01-27T21:41:46.127Z,1.99
2023-01-27T21:44:40.414Z,1.97
2023-01-27T21:47:10.481Z,1.92
2023-01-27T21:49:58.333Z,1.73
2023-01-27T21:52:37.578Z,1.70
2023-01-27T21:55:08.284Z,1.83
2023-01-27T21:57:36.259Z,1.82
2023-01-27T22:00:06.658Z,1.85
2023-01-27T22:02:33.723Z,1.96
2023-01-27T22:05:00.757Z,1.95
2023-01-27T22:07:30.446Z,1.84
2023-01-27T22:09:57.434Z,1.76
2023-01-27T22:12:24.404Z,1.83
2023-01-27T22:14:51.410Z,1.96
2023-01-27T22:17:19.961Z,1.96
2023-01-27T22:19:47.165Z,1.95
2023-01-27T22:22:14.517Z,2.06
2023-01-27T22:24:41.787Z,2.05
2023-01-27T22:27:08.769Z,2.18
2023-01-27T22:29:35.820Z,2.23
2023-01-27T22:32:03.310Z,2.22
2023-01-27T22:34:30.322Z,2.30
2023-01-27T22:36:57.323Z,2.27
2023-01-27T22:39:24.573Z,2.35
2023-01-27T22:41:51.672Z,2.27
2023-01-27T22:44:18.948Z,2.32
2023-01-27T22:46:49.051Z,2.21
2023-01-27T22:49:16.468Z,2.10
2023-01-27T22:51:43.498Z,1.87
2023-01-27T22:54:10.763Z,1.83
2023-01-27T22:56:37.845Z,1.87
2023-01-27T22:59:05.180Z,1.56
2023-01-27T23:01:32.478Z,1.60
2023-01-27T23:03:59.601Z,1.72
2023-01-27T23:06:26.623Z,1.87
2023-01-27T23:08:53.681Z,2.02
2023-01-27T23:11:20.666Z,2.03
2023-01-27T23:13:47.897Z,1.96
2023-01-27T23:16:15.072Z,1.96
2023-01-27T23:18:42.096Z,2.09
2023-01-27T23:21:09.254Z,2.06
2023-01-27T23:23:36.657Z,2.07
2023-01-27T23:26:07.964Z,1.95
2023-01-27T23:28:37.794Z,1.86
2023-01-27T23:31:09.832Z,1.88
2023-01-27T23:33:39.101Z,1.92
2023-01-27T23:36:08.271Z,2.09
2023-01-27T23:38:36.658Z,2.06
2023-01-27T23:41:13.591Z,2.12
2023-01-27T23:43:40.748Z,1.97
2023-01-27T23:46:07.775Z,2.09
2023-01-27T23:48:34.806Z,2.18
2023-01-27T23:51:08.348Z,2.15
2023-01-27T23:53:35.526Z,2.19
2023-01-27T23:56:02.700Z,2.31
2023-01-27T23:58:29.729Z,2.39
